Time;durP1;ratioP1;P1;durP2;ratioP2;P2;SDS_P1;SDS_P2;PMS_P1;PMS_P2;Temp;Humidity;BMP_temperature;BMP_pressure;BME280_temperature;BME280_humidity;BME280_pressure;Samples;Min_cycle;Max_cycle;Signal;HPM_P1;HPM_P2
2023/06/19 00:02:08;;;;;;;11.18;7.88;;;23.00;99.90;;;;;;5080703;28;20182;-80
2023/06/19 00:04:34;;;;;;;12.07;8.30;;;23.00;99.90;;;;;;5090968;28;20186;-81
2023/06/19 00:07:00;;;;;;;11.07;8.30;;;23.00;99.90;;;;;;5096108;28;20197;-80
2023/06/19 00:09:26;;;;;;;9.85;7.90;;;23.00;99.90;;;;;;5096716;28;20272;-80
2023/06/19 00:11:52;;;;;;;12.98;8.23;;;23.00;99.90;;;;;;5091448;28;20252;-80
2023/06/19 00:14:18;;;;;;;12.52;8.23;;;22.90;99.90;;;;;;5095278;28;20181;-83
2023/06/19 00:16:44;;;;;;;13.45;8.40;;;23.00;99.90;;;;;;5102733;28;20288;-81
2023/06/19 00:19:11;;;;;;;11.23;8.35;;;23.00;99.90;;;;;;5090842;28;20697;-81
2023/06/19 00:21:38;;;;;;;11.93;8.65;;;23.00;99.90;;;;;;5090792;28;20533;-81
2023/06/19 00:24:05;;;;;;;10.30;8.25;;;22.90;99.90;;;;;;5090997;28;20615;-81
2023/06/19 00:26:30;;;;;;;10.00;8.10;;;22.90;99.90;;;;;;5092481;28;20253;-80
2023/06/19 00:28:57;;;;;;;12.75;7.88;;;23.00;99.90;;;;;;5079150;28;20281;-81
2023/06/19 00:31:23;;;;;;;9.57;8.13;;;22.90;99.90;;;;;;5112524;28;20524;-81
2023/06/19 00:33:50;;;;;;;13.68;8.10;;;22.90;99.90;;;;;;5110429;28;20181;-81
2023/06/19 00:36:21;;;;;;;13.80;8.18;;;22.90;99.90;;;;;;5096848;28;20676;-80
2023/06/19 00:38:47;;;;;;;16.25;8.32;;;22.90;99.90;;;;;;5054313;28;1101626;-81
2023/06/19 00:41:15;;;;;;;15.30;8.60;;;22.80;99.90;;;;;;5130188;27;20180;-81
2023/06/19 00:43:42;;;;;;;11.70;8.35;;;22.80;99.90;;;;;;5130661;27;20229;-81
2023/06/19 00:46:08;;;;;;;13.90;8.45;;;22.80;99.90;;;;;;5107275;28;20174;-81
2023/06/19 00:48:34;;;;;;;14.07;8.00;;;22.80;99.90;;;;;;5099041;28;20617;-81
2023/06/19 00:51:01;;;;;;;13.52;8.00;;;22.80;99.90;;;;;;5098954;27;20676;-81
2023/06/19 00:53:27;;;;;;;10.98;8.13;;;22.80;99.90;;;;;;5089245;28;20205;-81
2023/06/19 00:55:54;;;;;;;10.10;8.02;;;22.80;99.90;;;;;;5094026;28;20213;-81
2023/06/19 00:58:21;;;;;;;11.32;8.55;;;22.80;99.90;;;;;;5108917;28;20184;-81
2023/06/19 01:00:48;;;;;;;11.55;8.25;;;22.80;99.90;;;;;;5103279;27;20247;-80
2023/06/19 01:03:17;;;;;;;11.85;7.70;;;22.80;99.90;;;;;;5090764;28;20678;-81
2023/06/19 01:05:47;;;;;;;12.93;7.57;;;22.70;99.90;;;;;;5092083;28;20194;-81
2023/06/19 01:08:28;;;;;;;12.05;7.85;;;22.70;99.90;;;;;;5097245;27;20188;-80
2023/06/19 01:10:57;;;;;;;13.13;7.90;;;22.70;99.90;;;;;;5093730;28;20184;-80
2023/06/19 01:13:37;;;;;;;11.30;8.07;;;22.70;99.90;;;;;;5092003;28;20206;-81
2023/06/19 01:16:03;;;;;;;10.70;8.45;;;22.70;99.90;;;;;;5095636;28;20276;-80
2023/06/19 01:18:31;;;;;;;14.82;8.13;;;22.70;99.90;;;;;;5111674;28;20185;-79
2023/06/19 01:21:08;;;;;;;11.55;8.23;;;22.70;99.90;;;;;;5094053;28;20283;-81
2023/06/19 01:23:35;;;;;;;10.13;8.13;;;22.70;99.90;;;;;;5104634;28;20201;-80
2023/06/19 01:26:01;;;;;;;10.25;7.72;;;22.70;99.90;;;;;;5090582;28;20634;-80
2023/06/19 01:28:28;;;;;;;10.50;8.23;;;22.70;99.90;;;;;;5091154;28;20185;-80
2023/06/19 01:30:57;;;;;;;11.55;8.05;;;22.70;99.90;;;;;;5073316;28;20186;-84
2023/06/19 01:33:28;;;;;;;8.40;7.50;;;22.70;99.90;;;;;;5079756;28;20181;-81
2023/06/19 01:35:56;;;;;;;12.10;7.93;;;22.70;99.90;;;;;;5095317;28;20201;-79
2023/06/19 01:38:26;;;;;;;12.32;7.85;;;22.70;99.90;;;;;;5092260;28;20236;-80
2023/06/19 01:40:56;;;;;;;12.45;7.97;;;22.70;99.90;;;;;;5093566;28;20328;-79
2023/06/19 01:43:24;;;;;;;11.32;8.75;;;22.70;99.90;;;;;;5091353;28;20289;-79
2023/06/19 01:45:51;;;;;;;12.85;8.63;;;22.70;99.90;;;;;;5096067;28;20190;-80
2023/06/19 01:48:17;;;;;;;12.88;8.23;;;22.70;99.90;;;;;;5111820;28;20180;-80
2023/06/19 01:50:47;;;;;;;11.27;7.70;;;22.60;99.90;;;;;;5109638;28;20253;-81
2023/06/19 01:53:14;;;;;;;10.80;8.07;;;22.60;99.90;;;;;;5106260;28;20186;-81
2023/06/19 01:55:39;;;;;;;11.18;8.38;;;22.60;99.90;;;;;;5073790;28;20252;-80
2023/06/19 01:58:05;;;;;;;10.13;8.25;;;22.60;99.90;;;;;;5095896;28;20273;-80
2023/06/19 02:00:35;;;;;;;11.05;8.25;;;22.60;99.90;;;;;;5099505;28;20178;-80
2023/06/19 02:03:04;;;;;;;13.52;8.80;;;22.60;99.90;;;;;;5085255;28;20723;-80
2023/06/19 02:05:31;;;;;;;12.95;9.48;;;22.60;99.90;;;;;;5073500;28;20186;-80
2023/06/19 02:07:57;;;;;;;11.23;8.25;;;22.60;99.90;;;;;;5109106;28;20207;-80
2023/06/19 02:10:22;;;;;;;10.48;8.50;;;22.50;99.90;;;;;;5111343;28;20264;-81
2023/06/19 02:12:48;;;;;;;11.85;8.40;;;22.50;99.90;;;;;;5095018;28;20324;-79
2023/06/19 02:15:14;;;;;;;10.65;8.35;;;22.50;99.90;;;;;;5083309;28;20217;-80
2023/06/19 02:17:42;;;;;;;10.95;8.50;;;22.50;99.90;;;;;;5095124;28;20230;-80
2023/06/19 02:20:11;;;;;;;11.38;8.13;;;22.50;99.90;;;;;;5091815;28;20257;-79
2023/06/19 02:22:39;;;;;;;12.07;8.50;;;22.50;99.90;;;;;;5103150;28;20270;-80
2023/06/19 02:25:05;;;;;;;11.30;8.18;;;22.50;99.90;;;;;;5090022;28;20178;-80
2023/06/19 02:27:32;;;;;;;12.68;8.43;;;22.50;99.90;;;;;;5109032;28;20208;-80
2023/06/19 02:29:58;;;;;;;10.35;8.27;;;22.50;99.90;;;;;;5111824;28;20181;-80
2023/06/19 02:32:24;;;;;;;11.23;8.63;;;22.50;99.80;;;;;;5104239;28;20537;-79
2023/06/19 02:34:50;;;;;;;11.77;8.60;;;22.50;99.60;;;;;;5104289;28;20212;-80
2023/06/19 02:37:16;;;;;;;10.07;8.10;;;22.50;99.50;;;;;;5096587;28;20174;-80
2023/06/19 02:39:42;;;;;;;11.07;8.32;;;22.50;99.30;;;;;;5089563;28;20237;-79
2023/06/19 02:42:08;;;;;;;11.65;8.52;;;22.50;99.20;;;;;;5089428;28;20196;-78
2023/06/19 02:44:34;;;;;;;10.85;8.30;;;22.50;99.10;;;;;;5089999;28;20185;-79
2023/06/19 02:46:59;;;;;;;19.35;8.75;;;22.50;98.90;;;;;;5100612;28;20211;-80
2023/06/19 02:49:25;;;;;;;10.50;8.10;;;22.50;98.70;;;;;;5091689;28;20186;-80
2023/06/19 02:51:51;;;;;;;11.00;8.90;;;22.50;98.50;;;;;;5095217;28;20177;-79
2023/06/19 02:54:17;;;;;;;9.93;8.23;;;22.50;98.40;;;;;;5092676;28;20604;-78
2023/06/19 02:56:42;;;;;;;11.85;8.27;;;22.50;98.20;;;;;;5089826;28;20185;-78
2023/06/19 02:59:08;;;;;;;14.13;8.65;;;22.50;98.10;;;;;;5089902;28;20595;-78
2023/06/19 03:01:34;;;;;;;10.93;9.02;;;22.50;98.00;;;;;;5074549;28;20265;-78
2023/06/19 03:04:00;;;;;;;13.38;9.00;;;22.50;97.80;;;;;;5109745;28;20621;-78
2023/06/19 03:06:26;;;;;;;10.80;9.23;;;22.50;97.70;;;;;;5094137;28;20562;-78
2023/06/19 03:08:52;;;;;;;12.18;8.65;;;22.50;97.60;;;;;;5077467;28;20174;-78
2023/06/19 03:11:18;;;;;;;10.52;8.43;;;22.50;97.50;;;;;;5103029;28;20212;-84
2023/06/19 03:13:46;;;;;;;12.05;8.73;;;22.50;97.40;;;;;;5088306;28;20603;-79
2023/06/19 03:16:12;;;;;;;11.18;8.40;;;22.40;97.30;;;;;;5099033;28;20563;-78
2023/06/19 03:18:38;;;;;;;10.38;8.68;;;22.40;97.30;;;;;;5098151;28;20238;-78
2023/06/19 03:21:04;;;;;;;11.80;9.18;;;22.40;97.40;;;;;;5119162;27;20261;-79
2023/06/19 03:23:30;;;;;;;13.63;8.70;;;22.50;97.40;;;;;;5076565;28;20697;-79
2023/06/19 03:25:57;;;;;;;14.85;8.45;;;22.50;97.40;;;;;;5093218;28;20178;-79
2023/06/19 03:28:23;;;;;;;13.52;9.68;;;22.40;97.40;;;;;;5093566;28;20185;-78
2023/06/19 03:30:50;;;;;;;14.02;9.15;;;22.40;97.40;;;;;;5093432;28;20236;-79
2023/06/19 03:33:21;;;;;;;13.68;8.20;;;22.40;97.40;;;;;;5095000;28;20640;-78
2023/06/19 03:35:47;;;;;;;12.13;8.75;;;22.40;97.40;;;;;;5086616;28;20213;-79
2023/06/19 03:38:39;;;;;;;12.95;8.32;;;22.40;97.40;;;;;;5083186;28;20339;-79
2023/06/19 03:41:07;;;;;;;12.60;8.77;;;22.40;97.30;;;;;;5099231;27;20196;-78
2023/06/19 03:43:33;;;;;;;11.98;8.30;;;22.40;97.30;;;;;;5098176;28;20190;-78
2023/06/19 03:45:58;;;;;;;14.73;8.95;;;22.40;97.20;;;;;;5103384;28;20185;-78
2023/06/19 03:48:24;;;;;;;13.52;8.63;;;22.40;97.10;;;;;;5079410;28;20207;-79
2023/06/19 03:50:50;;;;;;;12.60;8.45;;;22.50;97.10;;;;;;5092213;28;20268;-79
2023/06/19 03:53:16;;;;;;;11.98;8.23;;;22.50;97.10;;;;;;5059207;28;20281;-79
2023/06/19 03:55:44;;;;;;;10.60;8.52;;;22.50;97.00;;;;;;5096634;27;20315;-79
2023/06/19 03:58:11;;;;;;;11.07;8.80;;;22.50;97.00;;;;;;5097623;27;20189;-79
2023/06/19 04:00:37;;;;;;;12.57;8.43;;;22.50;97.00;;;;;;5082605;28;20182;-80
2023/06/19 04:03:03;;;;;;;11.63;8.60;;;22.50;97.10;;;;;;5084272;28;20196;-79
2023/06/19 04:05:29;;;;;;;11.68;8.48;;;22.50;97.20;;;;;;5074785;28;20186;-78
2023/06/19 04:07:55;;;;;;;12.73;8.15;;;22.50;97.30;;;;;;5092406;28;20741;-78
2023/06/19 04:10:20;;;;;;;13.07;8.00;;;22.50;97.40;;;;;;5092306;28;20182;-79
2023/06/19 04:12:47;;;;;;;15.05;7.95;;;22.50;97.60;;;;;;5109605;28;20288;-79
2023/06/19 04:15:13;;;;;;;12.93;7.30;;;22.60;97.90;;;;;;5110189;28;20252;-79
2023/06/19 04:17:39;;;;;;;9.95;7.50;;;22.60;98.10;;;;;;5094044;28;20645;-80
2023/06/19 04:20:14;;;;;;;8.55;7.65;;;22.60;98.40;;;;;;5108912;27;20182;-79
2023/06/19 04:22:41;;;;;;;12.32;7.47;;;22.60;98.50;;;;;;5101266;28;20223;-80
2023/06/19 04:25:08;;;;;;;9.45;7.53;;;22.60;98.70;;;;;;5096395;27;20186;-81
2023/06/19 04:27:34;;;;;;;11.52;8.02;;;22.60;98.90;;;;;;5094657;28;20280;-80
2023/06/19 04:30:02;;;;;;;12.98;7.72;;;22.60;99.10;;;;;;5077540;27;20189;-81
2023/06/19 04:32:28;;;;;;;10.55;7.85;;;22.60;99.30;;;;;;5100913;27;20185;-80
2023/06/19 04:34:54;;;;;;;10.30;7.88;;;22.60;99.50;;;;;;5107177;28;20729;-80
2023/06/19 04:37:20;;;;;;;10.35;7.88;;;22.50;99.80;;;;;;5091929;28;20177;-81
2023/06/19 04:39:46;;;;;;;14.73;7.78;;;22.50;99.90;;;;;;5092314;28;20225;-79
2023/06/19 04:42:20;;;;;;;11.60;7.90;;;22.50;99.90;;;;;;5092827;27;20246;-79
2023/06/19 04:44:49;;;;;;;12.10;7.22;;;22.50;99.90;;;;;;5092096;28;20305;-79
2023/06/19 04:47:22;;;;;;;8.80;7.10;;;22.50;99.90;;;;;;5093160;28;20231;-78
2023/06/19 04:49:47;;;;;;;8.60;6.60;;;22.50;99.90;;;;;;5076832;28;20323;-79
2023/06/19 04:52:13;;;;;;;10.55;6.57;;;22.50;99.90;;;;;;5080577;28;20268;-80
2023/06/19 04:54:39;;;;;;;11.45;5.53;;;22.50;99.90;;;;;;5095202;28;20244;-79
2023/06/19 04:57:06;;;;;;;9.13;6.30;;;22.50;99.90;;;;;;5091982;28;20189;-78
2023/06/19 04:59:32;;;;;;;7.88;5.45;;;22.50;99.90;;;;;;5091577;28;20202;-81
2023/06/19 05:01:58;;;;;;;6.70;5.60;;;22.50;99.90;;;;;;5108173;28;20212;-79
2023/06/19 05:04:24;;;;;;;6.97;5.13;;;22.50;99.90;;;;;;5092727;28;20227;-77
2023/06/19 05:06:50;;;;;;;9.02;5.47;;;22.50;99.90;;;;;;5091243;28;20602;-78
2023/06/19 05:09:17;;;;;;;10.25;5.43;;;22.50;99.90;;;;;;5110968;28;20238;-78
2023/06/19 05:11:42;;;;;;;8.98;5.57;;;22.50;99.90;;;;;;5101621;28;20201;-77
2023/06/19 05:14:08;;;;;;;8.18;5.47;;;22.50;99.90;;;;;;5110223;28;20278;-78
2023/06/19 05:16:34;;;;;;;9.38;5.22;;;22.50;99.90;;;;;;5104309;28;20224;-78
2023/06/19 05:19:00;;;;;;;6.78;4.88;;;22.50;99.90;;;;;;5112283;28;20176;-81
2023/06/19 05:21:26;;;;;;;9.43;5.03;;;22.50;99.90;;;;;;5109385;28;20183;-82
2023/06/19 05:23:52;;;;;;;10.75;5.30;;;22.50;99.90;;;;;;5100836;28;20513;-81
2023/06/19 05:26:19;;;;;;;13.27;5.35;;;22.40;99.90;;;;;;5090623;28;20189;-83
2023/06/19 05:28:46;;;;;;;8.88;4.65;;;22.40;99.90;;;;;;5093376;28;20622;-81
2023/06/19 05:31:12;;;;;;;10.02;5.15;;;22.40;99.90;;;;;;5090719;28;20719;-87
2023/06/19 05:33:38;;;;;;;6.78;4.88;;;22.40;99.90;;;;;;5078144;28;20287;-81
2023/06/19 05:36:04;;;;;;;8.00;5.43;;;22.40;99.90;;;;;;5105299;28;20305;-81
2023/06/19 05:38:30;;;;;;;6.28;5.60;;;22.40;99.90;;;;;;5091213;27;20185;-81
2023/06/19 05:40:57;;;;;;;8.20;5.40;;;22.40;99.90;;;;;;5090833;28;20251;-81
2023/06/19 05:43:24;;;;;;;9.00;5.43;;;22.40;99.90;;;;;;5097938;28;20182;-81
2023/06/19 05:45:50;;;;;;;9.35;5.95;;;22.40;99.90;;;;;;5090398;28;20225;-80
2023/06/19 05:48:16;;;;;;;10.65;5.60;;;22.40;99.90;;;;;;5105912;28;20174;-81
2023/06/19 05:50:42;;;;;;;8.43;6.00;;;22.40;99.90;;;;;;5073533;28;20202;-81
2023/06/19 05:53:07;;;;;;;8.48;5.45;;;22.40;99.90;;;;;;5091248;28;20321;-80
2023/06/19 05:55:33;;;;;;;8.00;5.95;;;22.50;99.90;;;;;;5097947;28;20213;-81
2023/06/19 05:57:59;;;;;;;9.95;6.10;;;22.50;99.90;;;;;;5089699;28;20544;-82
2023/06/19 06:00:25;;;;;;;8.82;6.00;;;22.50;99.90;;;;;;5090062;28;20229;-82
2023/06/19 06:02:51;;;;;;;9.60;6.50;;;22.50;99.90;;;;;;5082831;28;20181;-81
2023/06/19 06:05:20;;;;;;;10.95;7.40;;;22.50;99.90;;;;;;5111704;28;20186;-82
2023/06/19 06:07:46;;;;;;;10.48;6.95;;;22.50;99.90;;;;;;5101017;28;20191;-81
2023/06/19 06:10:12;;;;;;;10.63;6.75;;;22.50;99.90;;;;;;5081451;28;20189;-81
2023/06/19 06:12:38;;;;;;;10.88;7.10;;;22.50;99.90;;;;;;5098104;28;20192;-79
2023/06/19 06:15:07;;;;;;;9.32;7.40;;;22.50;99.90;;;;;;5105239;28;20267;-79
2023/06/19 06:17:32;;;;;;;11.27;7.38;;;22.50;99.90;;;;;;5103122;28;20185;-83
2023/06/19 06:19:58;;;;;;;10.73;7.82;;;22.50;99.90;;;;;;5085434;28;20277;-79
2023/06/19 06:22:24;;;;;;;11.13;7.80;;;22.50;99.90;;;;;;5091400;28;20178;-80
2023/06/19 06:24:50;;;;;;;12.68;8.40;;;22.50;99.90;;;;;;5089989;28;20224;-80
2023/06/19 06:27:16;;;;;;;12.10;8.43;;;22.50;99.90;;;;;;5091166;28;20181;-84
2023/06/19 06:29:42;;;;;;;12.63;8.20;;;22.50;99.90;;;;;;5076167;28;20534;-81
2023/06/19 06:32:09;;;;;;;15.63;7.93;;;22.50;99.90;;;;;;5096752;28;20177;-80
2023/06/19 06:34:35;;;;;;;14.45;8.15;;;22.50;99.90;;;;;;5100344;28;20181;-80
2023/06/19 06:37:01;;;;;;;11.88;8.20;;;22.50;99.90;;;;;;5094772;28;20699;-80
2023/06/19 06:39:27;;;;;;;10.88;8.15;;;22.50;99.90;;;;;;5111010;28;20270;-79
2023/06/19 06:41:53;;;;;;;13.60;8.50;;;22.50;99.90;;;;;;5109464;28;20214;-81
2023/06/19 06:44:19;;;;;;;12.98;8.45;;;22.50;99.90;;;;;;5095262;28;20207;-82
2023/06/19 06:46:44;;;;;;;10.73;7.90;;;22.50;99.90;;;;;;5090760;28;20626;-81
2023/06/19 06:49:11;;;;;;;8.15;7.10;;;22.50;99.90;;;;;;5103844;28;20176;-79
2023/06/19 06:51:37;;;;;;;9.43;7.18;;;22.60;99.90;;;;;;5108336;28;20236;-83
2023/06/19 06:54:03;;;;;;;9.52;7.70;;;22.50;99.90;;;;;;5089579;28;20181;-81
2023/06/19 06:56:30;;;;;;;13.18;7.10;;;22.50;99.90;;;;;;5064915;28;20224;-81
2023/06/19 06:58:55;;;;;;;9.10;6.65;;;22.50;99.90;;;;;;5093221;28;20239;-80
2023/06/19 07:01:21;;;;;;;8.50;6.88;;;22.50;99.90;;;;;;5095511;27;20181;-81
2023/06/19 07:03:47;;;;;;;9.02;6.78;;;22.50;99.90;;;;;;5110667;27;20185;-81
2023/06/19 07:06:13;;;;;;;9.80;7.07;;;22.50;99.90;;;;;;5100387;28;20276;-81
2023/06/19 07:08:40;;;;;;;14.93;7.30;;;22.50;99.90;;;;;;5111556;28;20212;-78
2023/06/19 07:11:07;;;;;;;13.05;8.45;;;22.50;99.90;;;;;;5106680;27;20355;-79
2023/06/19 07:13:33;;;;;;;18.20;10.68;;;22.50;99.90;;;;;;5101117;27;20206;-80
2023/06/19 07:16:01;;;;;;;14.48;10.43;;;22.50;99.90;;;;;;5095877;28;20328;-80
2023/06/19 07:18:27;;;;;;;18.88;10.07;;;22.50;99.90;;;;;;5097761;28;20227;-82
2023/06/19 07:20:53;;;;;;;13.38;9.85;;;22.50;99.90;;;;;;5106952;27;20177;-79
2023/06/19 07:23:19;;;;;;;13.68;9.35;;;22.40;99.90;;;;;;5100778;27;20170;-80
2023/06/19 07:25:48;;;;;;;16.55;9.95;;;22.40;99.90;;;;;;5095539;27;20204;-79
2023/06/19 07:28:15;;;;;;;20.70;12.15;;;22.40;99.90;;;;;;5100031;27;20648;-79
2023/06/19 07:30:40;;;;;;;21.38;16.58;;;22.30;99.90;;;;;;5114753;28;20185;-79
2023/06/19 07:33:06;;;;;;;18.52;13.80;;;22.30;99.90;;;;;;5075929;28;20200;-79
2023/06/19 07:35:32;;;;;;;21.58;13.18;;;22.30;99.90;;;;;;5090640;27;20232;-79
2023/06/19 07:37:58;;;;;;;17.63;12.98;;;22.30;99.90;;;;;;5091969;27;20194;-80
2023/06/19 07:40:23;;;;;;;15.10;12.77;;;22.20;99.90;;;;;;5089604;28;20309;-80
2023/06/19 07:42:49;;;;;;;17.10;13.05;;;22.20;99.90;;;;;;5093640;28;20590;-79
2023/06/19 07:45:15;;;;;;;22.55;16.40;;;22.20;99.90;;;;;;5094616;27;20184;-80
2023/06/19 07:47:41;;;;;;;22.08;15.82;;;22.20;99.90;;;;;;5108106;28;20192;-80
2023/06/19 07:50:07;;;;;;;28.35;19.38;;;22.10;99.90;;;;;;5114412;28;20192;-81
2023/06/19 07:52:33;;;;;;;26.83;18.65;;;22.10;99.90;;;;;;5114452;28;20686;-80
2023/06/19 07:54:59;;;;;;;32.20;22.70;;;22.10;99.90;;;;;;5113038;28;20223;-80
2023/06/19 07:57:26;;;;;;;36.63;25.92;;;22.10;99.90;;;;;;5107955;28;20166;-80
2023/06/19 07:59:55;;;;;;;25.27;18.20;;;22.10;99.90;;;;;;5094053;28;20182;-81
2023/06/19 08:02:20;;;;;;;27.02;19.17;;;22.10;99.90;;;;;;5093788;28;20174;-81
2023/06/19 08:04:47;;;;;;;27.27;18.63;;;22.10;99.90;;;;;;5093606;28;20251;-81
2023/06/19 08:07:12;;;;;;;27.45;19.08;;;22.00;99.90;;;;;;5094012;28;20174;-81
2023/06/19 08:09:38;;;;;;;30.02;20.38;;;22.10;99.90;;;;;;5110654;28;20242;-80
2023/06/19 08:12:06;;;;;;;26.70;17.65;;;22.10;99.90;;;;;;5113710;28;20621;-81
2023/06/19 08:14:31;;;;;;;28.38;16.98;;;22.10;99.90;;;;;;5113452;27;20185;-81
2023/06/19 08:16:57;;;;;;;25.20;17.05;;;22.10;99.90;;;;;;5113748;28;20177;-81
2023/06/19 08:19:23;;;;;;;25.05;16.83;;;22.00;99.90;;;;;;5103584;28;20174;-81
2023/06/19 08:21:49;;;;;;;23.23;14.30;;;22.00;99.90;;;;;;5076868;28;20182;-81
2023/06/19 08:24:14;;;;;;;17.20;12.07;;;22.00;99.90;;;;;;5092100;28;20625;-81
2023/06/19 08:26:40;;;;;;;15.10;10.95;;;22.00;99.90;;;;;;5093306;28;20520;-80
2023/06/19 08:29:06;;;;;;;18.27;11.32;;;22.00;99.90;;;;;;5081302;28;20205;-80
2023/06/19 08:31:33;;;;;;;17.75;10.18;;;22.00;99.90;;;;;;5097839;28;20613;-80
2023/06/19 08:34:00;;;;;;;19.05;9.73;;;22.00;99.90;;;;;;5095885;28;20266;-80
2023/06/19 08:36:26;;;;;;;17.20;8.65;;;22.00;99.90;;;;;;5113313;28;20296;-80
2023/06/19 08:38:52;;;;;;;16.98;9.50;;;21.90;99.90;;;;;;5107812;28;20322;-81
2023/06/19 08:41:19;;;;;;;15.80;9.07;;;21.90;99.90;;;;;;5099048;28;20328;-80
2023/06/19 08:43:45;;;;;;;14.07;8.05;;;22.00;99.90;;;;;;5099536;28;20188;-80
2023/06/19 08:46:17;;;;;;;11.90;8.57;;;21.90;99.90;;;;;;5093909;28;20369;-80
2023/06/19 08:48:43;;;;;;;14.07;8.13;;;22.00;99.90;;;;;;5097970;28;20178;-80
2023/06/19 08:51:10;;;;;;;13.15;8.35;;;22.00;99.90;;;;;;5095632;28;20306;-81
2023/06/19 08:53:45;;;;;;;13.80;8.02;;;22.00;99.90;;;;;;5104137;28;20230;-80
2023/06/19 08:56:10;;;;;;;16.73;8.38;;;22.00;99.90;;;;;;5092294;28;20204;-81
2023/06/19 08:58:37;;;;;;;11.73;7.32;;;22.00;99.90;;;;;;5075883;28;20235;-81
2023/06/19 09:01:03;;;;;;;8.82;7.13;;;22.00;99.90;;;;;;5091846;28;20626;-81
2023/06/19 09:03:29;;;;;;;11.40;6.72;;;22.00;99.90;;;;;;5092251;28;20687;-82
2023/06/19 09:05:54;;;;;;;14.20;7.43;;;22.00;99.90;;;;;;5106783;28;20205;-81
2023/06/19 09:08:22;;;;;;;13.30;7.32;;;22.00;99.90;;;;;;5095051;28;20197;-81
2023/06/19 09:11:02;;;;;;;14.48;7.15;;;22.00;99.90;;;;;;5083547;28;20182;-80
2023/06/19 09:13:29;;;;;;;9.32;6.78;;;22.00;99.90;;;;;;5092112;28;20161;-81
2023/06/19 09:16:06;;;;;;;12.15;6.32;;;22.00;99.90;;;;;;5095082;28;20208;-81
2023/06/19 09:18:48;;;;;;;8.40;5.82;;;21.90;99.90;;;;;;5111951;28;20601;-80
2023/06/19 09:21:24;;;;;;;9.07;5.50;;;21.90;99.90;;;;;;5110526;28;20187;-80
2023/06/19 09:23:53;;;;;;;10.35;5.32;;;22.00;99.90;;;;;;5093740;28;20224;-81
2023/06/19 09:26:25;;;;;;;10.13;5.15;;;21.90;99.90;;;;;;5091066;28;20176;-81
2023/06/19 09:28:51;;;;;;;7.82;5.07;;;22.00;99.90;;;;;;5092233;28;20178;-81
2023/06/19 09:31:17;;;;;;;7.38;4.97;;;22.10;99.90;;;;;;5091003;28;20969;-81
2023/06/19 09:33:43;;;;;;;10.80;5.15;;;22.00;99.90;;;;;;5091382;28;20182;-80
2023/06/19 09:36:09;;;;;;;7.05;5.00;;;22.10;99.90;;;;;;5091775;28;20210;-80
2023/06/19 09:38:40;;;;;;;13.90;5.60;;;22.10;99.90;;;;;;5090379;28;20178;-81
2023/06/19 09:41:08;;;;;;;9.70;5.30;;;22.20;99.90;;;;;;5090841;28;20225;-80
2023/06/19 09:43:40;;;;;;;9.25;5.78;;;22.30;99.90;;;;;;5089836;28;20305;-80
2023/06/19 09:46:07;;;;;;;8.73;5.63;;;22.40;99.90;;;;;;5098570;27;20204;-80
2023/06/19 09:48:34;;;;;;;13.50;6.13;;;22.40;99.90;;;;;;5091683;28;20229;-80
2023/06/19 09:51:18;;;;;;;8.10;5.65;;;22.50;99.90;;;;;;5092270;28;20189;-81
2023/06/19 09:53:49;;;;;;;8.30;6.28;;;22.50;99.90;;;;;;5092711;28;20306;-82
2023/06/19 09:56:16;;;;;;;8.73;5.82;;;22.50;99.90;;;;;;5100511;27;20687;-82
2023/06/19 09:58:45;;;;;;;10.98;7.07;;;22.40;99.90;;;;;;5076073;28;20190;-80
2023/06/19 10:01:12;;;;;;;11.77;7.95;;;22.40;99.90;;;;;;5092603;28;20246;-80
2023/06/19 10:03:40;;;;;;;13.35;7.65;;;22.40;99.90;;;;;;5094251;28;20279;-81
2023/06/19 10:06:06;;;;;;;16.20;8.43;;;22.30;99.90;;;;;;5094264;28;20177;-81
2023/06/19 10:08:40;;;;;;;14.13;8.15;;;22.30;99.90;;;;;;5091903;28;20679;-82
2023/06/19 10:11:06;;;;;;;10.90;8.23;;;22.30;99.90;;;;;;5102068;28;20215;-81
2023/06/19 10:13:33;;;;;;;12.95;8.93;;;22.30;99.90;;;;;;5080227;28;20181;-81
2023/06/19 10:16:00;;;;;;;13.02;9.75;;;22.30;99.90;;;;;;5094956;28;20205;-81
2023/06/19 10:18:26;;;;;;;12.45;9.68;;;22.30;99.90;;;;;;5105747;28;20248;-81
2023/06/19 10:20:54;;;;;;;14.45;9.57;;;22.30;99.90;;;;;;5090828;28;20178;-85
2023/06/19 10:23:25;;;;;;;17.63;9.30;;;22.30;99.90;;;;;;5098218;28;20797;-81
2023/06/19 10:25:53;;;;;;;15.77;8.88;;;22.20;99.90;;;;;;5095614;28;20256;-81
2023/06/19 10:28:29;;;;;;;17.25;9.70;;;22.20;99.90;;;;;;5100146;28;20184;-81
2023/06/19 10:31:08;;;;;;;16.77;10.27;;;22.20;99.90;;;;;;5087942;28;20307;-79
2023/06/19 10:33:40;;;;;;;14.07;10.55;;;22.10;99.90;;;;;;5099113;27;20286;-80
2023/06/19 10:36:17;;;;;;;13.95;10.07;;;22.10;99.90;;;;;;5108551;28;20644;-79
2023/06/19 10:38:47;;;;;;;16.00;10.48;;;22.10;99.90;;;;;;5114710;28;20181;-80
2023/06/19 10:41:20;;;;;;;14.43;10.32;;;22.00;99.90;;;;;;5106252;28;20225;-80
2023/06/19 10:44:12;;;;;;;14.60;10.35;;;22.00;99.90;;;;;;5101011;27;20173;-82
2023/06/19 10:46:38;;;;;;;16.85;10.57;;;22.00;99.90;;;;;;5101036;28;20260;-80
2023/06/19 10:49:07;;;;;;;13.80;10.70;;;22.00;99.90;;;;;;5096129;28;20171;-81
2023/06/19 10:51:42;;;;;;;15.13;11.18;;;22.10;99.90;;;;;;5101049;28;20193;-80
2023/06/19 10:54:08;;;;;;;15.82;11.10;;;22.10;99.90;;;;;;5106671;27;20342;-80
2023/06/19 10:56:34;;;;;;;14.57;10.77;;;22.20;99.90;;;;;;5101523;27;20278;-79
2023/06/19 10:59:01;;;;;;;14.93;9.80;;;22.30;99.90;;;;;;5100675;27;20178;-83
2023/06/19 11:01:38;;;;;;;13.63;9.30;;;22.30;99.90;;;;;;5094255;28;20317;-79
2023/06/19 11:04:10;;;;;;;13.88;9.55;;;22.40;99.90;;;;;;5113300;28;20208;-80
2023/06/19 11:06:38;;;;;;;18.50;10.73;;;22.50;99.90;;;;;;5110948;28;20622;-81
2023/06/19 11:09:08;;;;;;;17.52;10.40;;;22.70;99.90;;;;;;5095373;27;20237;-80
2023/06/19 11:11:45;;;;;;;13.23;9.82;;;22.80;99.90;;;;;;5094961;27;20656;-80
2023/06/19 11:14:13;;;;;;;18.40;10.52;;;22.80;99.90;;;;;;5078868;28;20230;-80
2023/06/19 11:16:41;;;;;;;15.65;11.15;;;22.90;99.90;;;;;;5099924;28;20596;-79
2023/06/19 11:19:18;;;;;;;19.35;11.68;;;22.90;99.90;;;;;;5104184;28;20540;-80
2023/06/19 11:21:51;;;;;;;15.40;11.63;;;22.90;99.90;;;;;;5103183;27;20785;-79
2023/06/19 11:24:18;;;;;;;15.10;11.43;;;22.90;99.90;;;;;;5089132;28;20181;-79
2023/06/19 11:26:49;;;;;;;14.63;11.80;;;22.90;99.90;;;;;;5099705;27;20230;-79
2023/06/19 11:29:32;;;;;;;16.58;10.82;;;23.00;99.90;;;;;;5108437;27;20190;-79
2023/06/19 11:32:17;;;;;;;18.73;10.13;;;23.00;99.90;;;;;;5106184;27;20597;-79
2023/06/19 11:34:44;;;;;;;17.60;10.00;;;23.20;99.90;;;;;;5113357;28;20200;-78
2023/06/19 11:37:23;;;;;;;13.40;9.18;;;23.30;99.90;;;;;;5113889;28;20345;-78
2023/06/19 11:39:53;;;;;;;16.33;9.70;;;23.40;99.90;;;;;;5089667;28;20216;-79
2023/06/19 11:42:19;;;;;;;15.07;8.63;;;23.40;99.90;;;;;;5110301;28;20202;-80
2023/06/19 11:45:06;;;;;;;15.45;9.18;;;23.50;99.90;;;;;;5085146;28;20182;-80
2023/06/19 11:47:34;;;;;;;15.43;9.82;;;23.60;99.90;;;;;;5096563;28;20182;-78
2023/06/19 11:50:03;;;;;;;16.63;9.35;;;23.70;99.90;;;;;;5099942;27;20166;-83
2023/06/19 11:52:29;;;;;;;15.52;10.18;;;23.70;99.90;;;;;;5108897;27;20185;-78
2023/06/19 11:54:56;;;;;;;19.33;11.25;;;23.70;99.90;;;;;;5077853;28;20431;-80
2023/06/19 11:57:22;;;;;;;15.90;10.40;;;23.70;99.90;;;;;;5079787;28;20307;-80
2023/06/19 11:59:48;;;;;;;17.30;9.63;;;23.80;99.90;;;;;;5110905;28;20693;-80
2023/06/19 12:02:13;;;;;;;16.30;10.25;;;23.80;99.90;;;;;;5101890;27;20185;-80
2023/06/19 12:04:39;;;;;;;16.35;9.95;;;23.90;99.90;;;;;;5093517;28;20649;-80
2023/06/19 12:07:06;;;;;;;16.63;10.50;;;23.90;99.90;;;;;;5092422;28;20275;-80
2023/06/19 12:09:31;;;;;;;16.35;11.52;;;24.00;99.90;;;;;;5094681;28;20181;-79
2023/06/19 12:11:58;;;;;;;19.23;11.30;;;24.10;99.90;;;;;;5101783;27;20205;-79
2023/06/19 12:14:24;;;;;;;15.98;11.75;;;24.10;99.90;;;;;;5106076;27;20177;-81
2023/06/19 12:16:50;;;;;;;21.95;12.52;;;24.10;99.90;;;;;;5109759;28;20665;-79
2023/06/19 12:19:16;;;;;;;14.55;11.88;;;24.10;99.90;;;;;;5112871;28;20177;-79
2023/06/19 12:21:42;;;;;;;15.70;10.30;;;24.20;99.90;;;;;;5114008;28;20186;-80
2023/06/19 12:24:08;;;;;;;16.38;11.40;;;24.20;99.90;;;;;;5110902;28;20214;-81
2023/06/19 12:26:37;;;;;;;15.55;11.10;;;24.20;99.90;;;;;;5104551;27;20177;-81
2023/06/19 12:29:06;;;;;;;18.63;11.68;;;24.30;99.90;;;;;;5114385;28;20614;-79
2023/06/19 12:31:33;;;;;;;19.40;11.43;;;24.20;99.90;;;;;;5113905;28;20273;-80
2023/06/19 12:34:01;;;;;;;19.58;10.93;;;24.20;99.90;;;;;;5112614;28;20181;-80
2023/06/19 12:36:27;;;;;;;15.38;9.95;;;24.20;99.90;;;;;;5103159;27;20212;-82
2023/06/19 12:38:54;;;;;;;15.90;10.75;;;24.20;99.90;;;;;;5092877;28;20274;-80